createdAt,value
2023-10-22T00:00:27.734Z,15.20
2023-10-22T00:05:29.203Z,15.27
2023-10-22T00:10:30.704Z,15.27
2023-10-22T00:15:32.145Z,15.18
2023-10-22T00:20:34.308Z,15.05
2023-10-22T00:25:37.064Z,15.03
2023-10-22T00:30:38.515Z,14.99
2023-10-22T00:35:39.982Z,14.98
2023-10-22T00:40:41.670Z,14.97
2023-10-22T00:45:43.672Z,14.94
2023-10-22T00:50:45.418Z,14.94
2023-10-22T00:55:47.831Z,14.90
2023-10-22T01:00:49.393Z,14.93
2023-10-22T01:05:50.933Z,14.94
2023-10-22T01:10:53.050Z,14.93
2023-10-22T01:15:54.547Z,14.89
2023-10-22T01:20:56.072Z,14.74
2023-10-22T01:25:57.532Z,14.66
2023-10-22T01:30:59.101Z,14.64
2023-10-22T01:36:00.981Z,14.64
2023-10-22T01:41:09.806Z,14.62
2023-10-22T01:46:11.358Z,14.66
2023-10-22T01:51:12.919Z,14.73
2023-10-22T01:56:14.523Z,14.74
2023-10-22T02:01:16.064Z,14.72
2023-10-22T02:06:17.664Z,14.60
2023-10-22T02:11:20.097Z,14.52
2023-10-22T02:16:21.646Z,14.52
2023-10-22T02:21:27.295Z,14.55
2023-10-22T02:26:28.752Z,14.56
2023-10-22T02:31:30.512Z,14.52
2023-10-22T02:36:32.392Z,14.61
2023-10-22T02:41:33.830Z,14.69
2023-10-22T02:46:35.370Z,14.75
2023-10-22T02:51:36.830Z,14.77
2023-10-22T02:56:40.413Z,14.75
2023-10-22T03:01:42.074Z,14.81
2023-10-22T03:06:43.591Z,14.83
2023-10-22T03:11:45.047Z,14.82
2023-10-22T03:16:47.170Z,14.81
2023-10-22T03:21:48.637Z,14.83
2023-10-22T03:26:50.385Z,14.83
2023-10-22T03:31:51.889Z,14.88
2023-10-22T03:36:53.366Z,14.89
2023-10-22T03:41:54.976Z,14.85
2023-10-22T03:46:56.600Z,14.75
2023-10-22T03:51:58.169Z,14.82
2023-10-22T03:57:00.066Z,14.76
2023-10-22T04:02:02.177Z,14.70
2023-10-22T04:07:04.296Z,14.73
2023-10-22T04:12:06.099Z,14.82
2023-10-22T04:17:07.816Z,14.90
2023-10-22T04:22:09.319Z,14.90
2023-10-22T04:27:12.686Z,14.75
2023-10-22T04:32:14.539Z,14.76
2023-10-22T04:37:18.292Z,14.80
2023-10-22T04:42:19.769Z,14.85
2023-10-22T04:47:22.170Z,14.91
2023-10-22T04:52:33.112Z,14.99
2023-10-22T04:57:35.912Z,14.90
2023-10-22T05:02:38.006Z,14.97
2023-10-22T05:07:39.504Z,14.83
2023-10-22T05:12:40.971Z,14.83
2023-10-22T05:17:42.619Z,14.89
2023-10-22T05:22:45.556Z,14.98
2023-10-22T05:27:47.586Z,15.00
2023-10-22T05:32:49.109Z,15.02
2023-10-22T05:37:52.455Z,15.03
2023-10-22T05:42:53.907Z,15.06
2023-10-22T05:47:55.475Z,15.01
2023-10-22T05:52:57.302Z,14.95
2023-10-22T05:57:58.817Z,14.90
2023-10-22T06:03:01.430Z,14.86
2023-10-22T06:08:03.003Z,14.94
2023-10-22T06:13:04.441Z,14.97
2023-10-22T06:18:07.238Z,15.03
2023-10-22T06:23:09.467Z,15.04
2023-10-22T06:28:11.335Z,15.07
2023-10-22T06:33:12.953Z,15.10
2023-10-22T06:38:14.491Z,15.06
2023-10-22T06:43:15.999Z,14.96
2023-10-22T06:48:17.561Z,15.00
2023-10-22T06:53:19.088Z,14.97
2023-10-22T06:58:20.553Z,15.02
2023-10-22T07:03:22.159Z,14.99
2023-10-22T07:08:23.649Z,15.04
2023-10-22T07:13:25.671Z,15.05
2023-10-22T07:18:27.249Z,14.91
2023-10-22T07:23:32.631Z,14.88
2023-10-22T07:28:34.462Z,14.96
2023-10-22T07:33:35.991Z,14.69
2023-10-22T07:38:39.335Z,14.44
2023-10-22T07:43:41.952Z,14.39
2023-10-22T07:48:43.878Z,14.56
2023-10-22T07:53:47.556Z,14.48
2023-10-22T07:58:49.271Z,14.56
2023-10-22T08:03:51.924Z,14.40
2023-10-22T08:08:55.949Z,14.50
2023-10-22T08:13:57.560Z,14.47
2023-10-22T08:18:59.073Z,14.56
2023-10-22T08:24:00.884Z,14.68
2023-10-22T08:29:02.929Z,14.26
2023-10-22T08:34:04.750Z,14.24
2023-10-22T08:39:09.958Z,14.04
2023-10-22T08:44:15.033Z,13.99
2023-10-22T08:49:20.310Z,14.25
2023-10-22T08:54:23.738Z,14.02
2023-10-22T08:59:25.398Z,14.17
2023-10-22T09:04:27.008Z,14.20
2023-10-22T09:09:39.782Z,14.07
2023-10-22T09:14:45.061Z,13.86
2023-10-22T09:19:48.484Z,13.63
2023-10-22T09:24:51.930Z,13.96
2023-10-22T09:29:54.477Z,13.59
2023-10-22T09:34:56.056Z,13.71
2023-10-22T09:39:57.501Z,13.50
2023-10-22T09:44:58.945Z,13.83
2023-10-22T09:50:06.749Z,13.48
2023-10-22T09:55:13.611Z,13.46
2023-10-22T10:00:16.287Z,13.48
2023-10-22T10:05:20.357Z,13.50
2023-10-22T10:10:22.354Z,13.67
2023-10-22T10:15:42.118Z,13.67
2023-10-22T10:20:44.254Z,13.41
2023-10-22T10:25:46.065Z,13.63
2023-10-22T10:30:47.788Z,13.87
2023-10-22T10:35:50.907Z,13.64
2023-10-22T10:40:55.133Z,13.99
2023-10-22T10:46:24.663Z,13.75
2023-10-22T10:51:26.603Z,13.71
2023-10-22T10:56:57.196Z,13.84
2023-10-22T11:02:02.916Z,13.93
2023-10-22T11:07:22.401Z,13.84
2023-10-22T11:12:27.367Z,13.69
2023-10-22T11:17:29.163Z,13.93
2023-10-22T11:22:30.844Z,13.69
2023-10-22T11:27:33.249Z,13.93
2023-10-22T11:32:38.477Z,13.94
2023-10-22T11:37:43.817Z,13.97
2023-10-22T11:42:45.364Z,13.68
2023-10-22T11:47:46.938Z,13.66
2023-10-22T11:52:55.627Z,13.97
2023-10-22T11:57:57.470Z,13.94
2023-10-22T12:02:59.032Z,14.00
2023-10-22T12:08:00.714Z,13.77
2023-10-22T12:13:02.883Z,13.89
2023-10-22T12:18:06.540Z,13.57
2023-10-22T12:23:12.236Z,13.39
2023-10-22T12:28:14.049Z,13.72
2023-10-22T12:33:15.681Z,13.79
2023-10-22T12:38:17.207Z,13.89
2023-10-22T12:43:18.688Z,13.95
2023-10-22T12:48:20.336Z,13.87
2023-10-22T12:53:21.865Z,13.96
2023-10-22T12:58:24.497Z,13.95
2023-10-22T13:03:26.138Z,13.79
2023-10-22T13:08:27.806Z,14.01
2023-10-22T13:13:29.332Z,14.07
2023-10-22T13:18:30.823Z,13.90
2023-10-22T13:23:32.365Z,13.74
2023-10-22T13:28:33.905Z,13.95
2023-10-22T13:33:35.420Z,14.10
2023-10-22T13:38:37.031Z,14.07
2023-10-22T13:43:40.233Z,13.97
2023-10-22T13:48:41.866Z,14.02
2023-10-22T13:53:43.453Z,14.07
2023-10-22T13:58:44.944Z,14.02
2023-10-22T14:03:46.549Z,14.16
2023-10-22T14:08:48.070Z,14.20
2023-10-22T14:13:53.278Z,14.12
2023-10-22T14:18:54.954Z,14.18
2023-10-22T14:23:56.609Z,14.18
2023-10-22T14:28:58.122Z,14.20
2023-10-22T14:33:59.671Z,14.15
2023-10-22T14:39:01.293Z,14.22
2023-10-22T14:44:02.820Z,14.25
2023-10-22T14:49:04.332Z,14.30
2023-10-22T14:54:06.034Z,14.39
2023-10-22T14:59:09.865Z,14.30
2023-10-22T15:04:11.661Z,14.25
2023-10-22T15:09:13.321Z,14.09
2023-10-22T15:14:15.449Z,14.24
2023-10-22T15:19:17.112Z,14.26
2023-10-22T15:24:18.587Z,14.31
2023-10-22T15:29:20.672Z,14.21
2023-10-22T15:34:22.147Z,14.16
2023-10-22T15:39:23.844Z,14.07
2023-10-22T15:44:25.332Z,13.89
2023-10-22T15:49:26.837Z,13.79
2023-10-22T15:54:28.307Z,13.78
2023-10-22T15:59:29.820Z,13.72
2023-10-22T16:04:31.269Z,13.65
2023-10-22T16:09:33.554Z,13.67
2023-10-22T16:14:36.250Z,13.62
2023-10-22T16:19:38.333Z,13.55
2023-10-22T16:24:40.163Z,13.50
2023-10-22T16:29:41.740Z,13.42
2023-10-22T16:34:43.713Z,13.35
2023-10-22T16:39:45.330Z,13.23
2023-10-22T16:44:50.897Z,13.14
2023-10-22T16:49:54.664Z,13.05
2023-10-22T16:54:56.542Z,12.99
2023-10-22T16:59:58.064Z,12.92
2023-10-22T17:04:59.546Z,12.81
2023-10-22T17:10:01.213Z,12.75
2023-10-22T17:15:02.819Z,12.67
2023-10-22T17:20:05.232Z,12.66
2023-10-22T17:25:07.442Z,12.58
2023-10-22T17:30:09.420Z,12.49
2023-10-22T17:35:10.958Z,12.48
2023-10-22T17:40:12.931Z,12.47
2023-10-22T17:45:14.924Z,12.42
2023-10-22T17:50:16.622Z,12.38
2023-10-22T17:55:18.085Z,12.29
2023-10-22T18:00:23.535Z,12.10
2023-10-22T18:05:25.172Z,12.13
2023-10-22T18:10:26.696Z,12.07
2023-10-22T18:15:28.199Z,12.00
2023-10-22T18:20:33.497Z,11.94
2023-10-22T18:25:35.511Z,12.03
2023-10-22T18:30:40.635Z,12.11
2023-10-22T18:35:45.028Z,12.16
2023-10-22T18:40:51.129Z,12.11
2023-10-22T18:45:52.958Z,12.13
2023-10-22T18:50:59.315Z,12.06
2023-10-22T18:56:05.589Z,12.03
2023-10-22T19:01:24.997Z,11.98
2023-10-22T19:06:28.926Z,11.88
2023-10-22T19:11:30.725Z,11.91
2023-10-22T19:16:34.527Z,11.80
2023-10-22T19:21:36.080Z,11.78
2023-10-22T19:26:37.586Z,11.77
2023-10-22T19:31:39.239Z,11.74
2023-10-22T19:36:40.853Z,11.72
2023-10-22T19:41:42.366Z,11.64
2023-10-22T19:46:43.902Z,11.56
2023-10-22T19:51:45.693Z,11.34
2023-10-22T19:56:47.183Z,11.25
2023-10-22T20:01:48.931Z,11.29
2023-10-22T20:06:51.907Z,11.37
2023-10-22T20:11:53.578Z,11.39
2023-10-22T20:16:55.388Z,11.50
2023-10-22T20:21:56.834Z,11.58
2023-10-22T20:26:58.333Z,11.67
2023-10-22T20:31:59.901Z,11.71
2023-10-22T20:37:04.575Z,11.79
2023-10-22T20:42:06.166Z,11.80
2023-10-22T20:47:07.738Z,11.84
2023-10-22T20:52:09.248Z,11.89
2023-10-22T20:57:10.752Z,11.79
2023-10-22T21:02:12.273Z,11.72
2023-10-22T21:07:13.760Z,11.70
2023-10-22T21:12:15.235Z,11.57
2023-10-22T21:17:16.699Z,11.40
2023-10-22T21:22:18.197Z,11.35
2023-10-22T21:27:19.691Z,11.32
2023-10-22T21:32:21.330Z,11.24
2023-10-22T21:37:22.785Z,11.23
2023-10-22T21:42:24.346Z,11.16
2023-10-22T21:47:27.867Z,11.18
2023-10-22T21:52:29.382Z,11.20
2023-10-22T21:57:31.062Z,11.23
2023-10-22T22:02:32.638Z,11.34
2023-10-22T22:07:34.146Z,11.42
2023-10-22T22:12:36.173Z,11.39
2023-10-22T22:17:37.763Z,11.40
2023-10-22T22:22:39.592Z,11.42
2023-10-22T22:27:41.093Z,11.53
2023-10-22T22:32:42.623Z,11.60
2023-10-22T22:37:44.147Z,11.63
2023-10-22T22:42:45.674Z,11.70
2023-10-22T22:47:47.306Z,11.75
2023-10-22T22:52:48.821Z,11.77
2023-10-22T22:57:50.324Z,11.75
2023-10-22T23:02:51.831Z,11.73
2023-10-22T23:07:53.566Z,11.78
2023-10-22T23:12:55.017Z,11.83
2023-10-22T23:17:56.569Z,11.88
2023-10-22T23:22:58.044Z,11.82
2023-10-22T23:27:59.813Z,11.79
2023-10-22T23:33:01.465Z,11.81
2023-10-22T23:38:03.030Z,11.85
2023-10-22T23:43:04.483Z,11.83
2023-10-22T23:48:06.269Z,11.82
2023-10-22T23:53:07.730Z,11.78
2023-10-22T23:58:09.189Z,11.84
